sensor_id;sensor_type;location;lat;lon;timestamp;pressure;altitude;pressure_sealevel;temperature;humidity
38303;BME280;24103;42.454;27.400;2023-04-19T09:42:44;100216.84;;;14.97;100.00
38303;BME280;24103;42.454;27.400;2023-04-19T09:45:13;100206.78;;;15.01;100.00
38303;BME280;24103;42.454;27.400;2023-04-19T09:47:39;100207.88;;;15.30;100.00
38303;BME280;24103;42.454;27.400;2023-04-19T09:50:09;100203.66;;;15.28;100.00
38303;BME280;24103;42.454;27.400;2023-04-19T09:52:35;100196.13;;;15.33;100.00
38303;BME280;24103;42.454;27.400;2023-04-19T09:55:03;100193.44;;;15.44;100.00
38303;BME280;24103;42.454;27.400;2023-04-19T09:57:32;100191.66;;;15.34;100.00
38303;BME280;24103;42.454;27.400;2023-04-19T09:59:59;100189.53;;;15.16;100.00
38303;BME280;24103;42.454;27.400;2023-04-19T10:02:29;100189.28;;;15.94;100.00
38303;BME280;24103;42.454;27.400;2023-04-19T10:04:56;100185.41;;;16.08;100.00
38303;BME280;24103;42.454;27.400;2023-04-19T10:07:22;100185.72;;;16.14;100.00
38303;BME280;24103;42.454;27.400;2023-04-19T10:09:49;100194.56;;;15.84;100.00
38303;BME280;24103;42.454;27.400;2023-04-19T10:12:15;100181.34;;;16.44;100.00
38303;BME280;24103;42.454;27.400;2023-04-19T10:14:41;100173.25;;;16.65;100.00
38303;BME280;24103;42.454;27.400;2023-04-19T10:17:07;100180.44;;;16.84;98.23
38303;BME280;24103;42.454;27.400;2023-04-19T10:19:34;100180.66;;;16.52;98.55
38303;BME280;24103;42.454;27.400;2023-04-19T10:22:00;100178.97;;;16.51;96.22
38303;BME280;24103;42.454;27.400;2023-04-19T10:24:29;100189.34;;;16.13;98.80
38303;BME280;24103;42.454;27.400;2023-04-19T10:27:15;100196.09;;;15.87;100.00
38303;BME280;24103;42.454;27.400;2023-04-19T10:32:18;100206.63;;;15.88;100.00
38303;BME280;24103;42.454;27.400;2023-04-19T10:34:45;100218.69;;;15.71;100.00
38303;BME280;24103;42.454;27.400;2023-04-19T10:37:15;100239.47;;;15.24;100.00
38303;BME280;24103;42.454;27.400;2023-04-19T10:39:42;100247.94;;;14.85;100.00
38303;BME280;24103;42.454;27.400;2023-04-19T10:42:08;100248.19;;;14.60;100.00
38303;BME280;24103;42.454;27.400;2023-04-19T10:44:33;100260.53;;;14.61;100.00
38303;BME280;24103;42.454;27.400;2023-04-19T10:46:59;100261.34;;;14.50;100.00
38303;BME280;24103;42.454;27.400;2023-04-19T10:49:26;100253.38;;;14.38;100.00
38303;BME280;24103;42.454;27.400;2023-04-19T10:51:52;100258.44;;;14.30;100.00
38303;BME280;24103;42.454;27.400;2023-04-19T10:54:29;100260.09;;;14.09;100.00
38303;BME280;24103;42.454;27.400;2023-04-19T10:59:28;100264.00;;;14.16;100.00
38303;BME280;24103;42.454;27.400;2023-04-19T11:01:58;100252.38;;;14.17;100.00
38303;BME280;24103;42.454;27.400;2023-04-19T11:07:06;100248.06;;;14.50;100.00
38303;BME280;24103;42.454;27.400;2023-04-19T11:09:33;100242.50;;;14.76;100.00
38303;BME280;24103;42.454;27.400;2023-04-19T11:14:33;100239.75;;;15.09;100.00
38303;BME280;24103;42.454;27.400;2023-04-19T11:17:01;100223.13;;;14.96;100.00
38303;BME280;24103;42.454;27.400;2023-04-19T11:19:26;100231.63;;;15.22;100.00
38303;BME280;24103;42.454;27.400;2023-04-19T11:21:57;100235.50;;;15.51;100.00
38303;BME280;24103;42.454;27.400;2023-04-19T11:24:23;100225.66;;;15.62;100.00
38303;BME280;24103;42.454;27.400;2023-04-19T11:26:48;100218.63;;;16.03;100.00
38303;BME280;24103;42.454;27.400;2023-04-19T11:29:14;100211.28;;;16.27;100.00
38303;BME280;24103;42.454;27.400;2023-04-19T11:31:39;100207.09;;;16.24;100.00
38303;BME280;24103;42.454;27.400;2023-04-19T11:34:07;100206.13;;;16.35;100.00
38303;BME280;24103;42.454;27.400;2023-04-19T11:36:33;100209.28;;;16.50;100.00
38303;BME280;24103;42.454;27.400;2023-04-19T11:39:03;100216.19;;;16.52;100.00
38303;BME280;24103;42.454;27.400;2023-04-19T11:41:36;100212.56;;;16.23;100.00
38303;BME280;24103;42.454;27.400;2023-04-19T11:44:03;100212.94;;;16.18;100.00
38303;BME280;24103;42.454;27.400;2023-04-19T11:46:28;100211.81;;;16.11;100.00
38303;BME280;24103;42.454;27.400;2023-04-19T11:48:53;100212.47;;;16.03;100.00
38303;BME280;24103;42.454;27.400;2023-04-19T11:51:19;100215.03;;;16.14;100.00
38303;BME280;24103;42.454;27.400;2023-04-19T11:53:45;100214.78;;;16.17;100.00
38303;BME280;24103;42.454;27.400;2023-04-19T11:56:11;100209.63;;;16.26;100.00
38303;BME280;24103;42.454;27.400;2023-04-19T11:58:38;100213.53;;;16.21;100.00
38303;BME280;24103;42.454;27.400;2023-04-19T12:01:16;100210.59;;;16.25;100.00
38303;BME280;24103;42.454;27.400;2023-04-19T12:03:50;100211.75;;;16.32;100.00
38303;BME280;24103;42.454;27.400;2023-04-19T12:06:23;100201.91;;;16.23;100.00
38303;BME280;24103;42.454;27.400;2023-04-19T12:08:51;100203.06;;;15.99;100.00
38303;BME280;24103;42.454;27.400;2023-04-19T12:11:19;100206.25;;;15.93;100.00
38303;BME280;24103;42.454;27.400;2023-04-19T12:13:45;100212.41;;;15.93;100.00
38303;BME280;24103;42.454;27.400;2023-04-19T12:16:12;100212.59;;;15.80;100.00
38303;BME280;24103;42.454;27.400;2023-04-19T12:18:50;100212.16;;;15.96;100.00
38303;BME280;24103;42.454;27.400;2023-04-19T12:21:26;100211.44;;;15.94;100.00
38303;BME280;24103;42.454;27.400;2023-04-19T12:24:02;100197.34;;;16.13;100.00
38303;BME280;24103;42.454;27.400;2023-04-19T12:26:28;100202.06;;;16.31;100.00
38303;BME280;24103;42.454;27.400;2023-04-19T12:28:55;100201.59;;;16.16;100.00
38303;BME280;24103;42.454;27.400;2023-04-19T12:31:21;100205.34;;;16.13;100.00
38303;BME280;24103;42.454;27.400;2023-04-19T12:33:47;100187.91;;;16.30;100.00
38303;BME280;24103;42.454;27.400;2023-04-19T12:36:13;100199.59;;;16.49;100.00
38303;BME280;24103;42.454;27.400;2023-04-19T12:38:39;100192.47;;;16.59;100.00
38303;BME280;24103;42.454;27.400;2023-04-19T12:41:04;100202.63;;;16.34;100.00
38303;BME280;24103;42.454;27.400;2023-04-19T12:43:31;100183.66;;;16.28;100.00
38303;BME280;24103;42.454;27.400;2023-04-19T12:45:57;100188.69;;;16.52;100.00
38303;BME280;24103;42.454;27.400;2023-04-19T12:48:23;100185.84;;;16.44;99.26
38303;BME280;24103;42.454;27.400;2023-04-19T12:50:49;100170.91;;;16.31;93.55
38303;BME280;24103;42.454;27.400;2023-04-19T12:53:14;100179.81;;;16.42;97.11
38303;BME280;24103;42.454;27.400;2023-04-19T12:55:40;100165.81;;;16.59;97.34
38303;BME280;24103;42.454;27.400;2023-04-19T12:58:06;100171.94;;;17.00;96.95
38303;BME280;24103;42.454;27.400;2023-04-19T13:00:31;100164.91;;;16.99;91.42
38303;BME280;24103;42.454;27.400;2023-04-19T13:02:57;100170.69;;;16.94;91.45
38303;BME280;24103;42.454;27.400;2023-04-19T13:05:23;100155.63;;;16.93;87.47
38303;BME280;24103;42.454;27.400;2023-04-19T13:07:49;100152.28;;;17.11;84.71
38303;BME280;24103;42.454;27.400;2023-04-19T13:10:14;100161.25;;;16.90;87.45
38303;BME280;24103;42.454;27.400;2023-04-19T13:12:40;100159.00;;;17.15;88.92
38303;BME280;24103;42.454;27.400;2023-04-19T13:15:06;100155.88;;;16.81;83.53
38303;BME280;24103;42.454;27.400;2023-04-19T13:17:31;100149.47;;;17.03;80.89
38303;BME280;24103;42.454;27.400;2023-04-19T13:19:57;100138.75;;;16.83;79.78
38303;BME280;24103;42.454;27.400;2023-04-19T13:22:22;100148.47;;;16.34;84.08
38303;BME280;24103;42.454;27.400;2023-04-19T13:24:47;100157.94;;;16.07;87.68
38303;BME280;24103;42.454;27.400;2023-04-19T13:27:13;100152.50;;;15.88;88.39
38303;BME280;24103;42.454;27.400;2023-04-19T13:29:38;100157.19;;;16.05;88.87
38303;BME280;24103;42.454;27.400;2023-04-19T13:32:04;100156.88;;;15.98;89.39
38303;BME280;24103;42.454;27.400;2023-04-19T13:34:32;100150.41;;;16.22;89.48
38303;BME280;24103;42.454;27.400;2023-04-19T13:36:57;100148.03;;;16.29;86.26
38303;BME280;24103;42.454;27.400;2023-04-19T13:39:23;100145.38;;;16.29;84.85
38303;BME280;24103;42.454;27.400;2023-04-19T13:41:49;100148.09;;;16.48;82.01
38303;BME280;24103;42.454;27.400;2023-04-19T13:44:14;100146.72;;;16.64;82.78
38303;BME280;24103;42.454;27.400;2023-04-19T13:46:40;100137.56;;;16.47;77.24
38303;BME280;24103;42.454;27.400;2023-04-19T13:49:05;100146.56;;;16.15;74.53
38303;BME280;24103;42.454;27.400;2023-04-19T13:51:31;100139.97;;;16.09;77.86
38303;BME280;24103;42.454;27.400;2023-04-19T13:53:56;100136.09;;;16.23;78.67
38303;BME280;24103;42.454;27.400;2023-04-19T13:56:22;100142.38;;;16.12;75.76
38303;BME280;24103;42.454;27.400;2023-04-19T13:58:47;100130.06;;;16.21;75.05
38303;BME280;24103;42.454;27.400;2023-04-19T14:01:12;100131.09;;;15.99;72.59
38303;BME280;24103;42.454;27.400;2023-04-19T14:03:38;100129.25;;;16.30;74.06
38303;BME280;24103;42.454;27.400;2023-04-19T14:06:04;100128.72;;;15.96;73.75
38303;BME280;24103;42.454;27.400;2023-04-19T14:08:29;100130.91;;;16.31;76.92
38303;BME280;24103;42.454;27.400;2023-04-19T14:10:54;100133.31;;;16.34;74.47
38303;BME280;24103;42.454;27.400;2023-04-19T14:13:20;100133.13;;;16.16;76.34
38303;BME280;24103;42.454;27.400;2023-04-19T14:15:45;100128.09;;;16.23;71.97
38303;BME280;24103;42.454;27.400;2023-04-19T14:18:11;100132.91;;;15.98;75.20
38303;BME280;24103;42.454;27.400;2023-04-19T14:20:36;100135.66;;;15.87;72.39
38303;BME280;24103;42.454;27.400;2023-04-19T14:23:01;100133.16;;;15.64;74.15
38303;BME280;24103;42.454;27.400;2023-04-19T14:25:28;100137.03;;;15.60;75.24
38303;BME280;24103;42.454;27.400;2023-04-19T14:27:53;100142.38;;;15.60;77.46
38303;BME280;24103;42.454;27.400;2023-04-19T14:30:19;100144.25;;;15.48;81.98
38303;BME280;24103;42.454;27.400;2023-04-19T14:32:45;100147.50;;;15.52;82.92
38303;BME280;24103;42.454;27.400;2023-04-19T14:35:10;100136.66;;;15.65;80.06
38303;BME280;24103;42.454;27.400;2023-04-19T14:37:36;100149.78;;;15.78;84.59
38303;BME280;24103;42.454;27.400;2023-04-19T14:40:02;100148.41;;;15.83;85.34
38303;BME280;24103;42.454;27.400;2023-04-19T14:42:28;100141.66;;;15.79;83.63
38303;BME280;24103;42.454;27.400;2023-04-19T14:44:53;100143.81;;;15.95;83.75
38303;BME280;24103;42.454;27.400;2023-04-19T14:47:19;100139.38;;;15.96;81.50
38303;BME280;24103;42.454;27.400;2023-04-19T14:49:45;100143.00;;;15.95;82.02
38303;BME280;24103;42.454;27.400;2023-04-19T14:52:11;100139.81;;;16.01;78.45
38303;BME280;24103;42.454;27.400;2023-04-19T14:54:36;100143.44;;;16.00;78.09
38303;BME280;24103;42.454;27.400;2023-04-19T14:57:02;100139.81;;;16.01;77.62
38303;BME280;24103;42.454;27.400;2023-04-19T14:59:27;100143.16;;;16.03;80.20
38303;BME280;24103;42.454;27.400;2023-04-19T15:01:53;100151.69;;;15.97;83.43
38303;BME280;24103;42.454;27.400;2023-04-19T15:04:18;100152.94;;;15.93;84.93
38303;BME280;24103;42.454;27.400;2023-04-19T15:06:44;100142.03;;;15.96;81.43
38303;BME280;24103;42.454;27.400;2023-04-19T15:09:09;100144.56;;;15.97;79.61
38303;BME280;24103;42.454;27.400;2023-04-19T15:11:35;100149.03;;;15.97;82.24
38303;BME280;24103;42.454;27.400;2023-04-19T15:14:01;100150.16;;;15.73;84.35
38303;BME280;24103;42.454;27.400;2023-04-19T15:16:26;100140.88;;;15.68;83.43
38303;BME280;24103;42.454;27.400;2023-04-19T15:18:52;100152.19;;;15.81;87.34
38303;BME280;24103;42.454;27.400;2023-04-19T15:21:20;100144.34;;;15.79;84.01
38303;BME280;24103;42.454;27.400;2023-04-19T15:23:46;100152.94;;;15.51;88.62
38303;BME280;24103;42.454;27.400;2023-04-19T15:26:12;100151.03;;;15.53;86.89
38303;BME280;24103;42.454;27.400;2023-04-19T15:28:37;100153.63;;;15.43;89.18
38303;BME280;24103;42.454;27.400;2023-04-19T15:31:05;100153.03;;;15.39;92.38
38303;BME280;24103;42.454;27.400;2023-04-19T15:33:31;100172.63;;;15.17;96.47
38303;BME280;24103;42.454;27.400;2023-04-19T15:35:58;100165.00;;;14.91;93.61
38303;BME280;24103;42.454;27.400;2023-04-19T15:38:29;100170.69;;;14.87;100.00
38303;BME280;24103;42.454;27.400;2023-04-19T15:40:56;100173.00;;;14.80;100.00
38303;BME280;24103;42.454;27.400;2023-04-19T15:43:23;100169.66;;;14.67;100.00
38303;BME280;24103;42.454;27.400;2023-04-19T15:45:49;100166.75;;;14.59;100.00
38303;BME280;24103;42.454;27.400;2023-04-19T15:48:15;100167.72;;;14.46;100.00
38303;BME280;24103;42.454;27.400;2023-04-19T15:50:40;100170.97;;;14.50;100.00
38303;BME280;24103;42.454;27.400;2023-04-19T15:53:06;100177.88;;;14.41;100.00
38303;BME280;24103;42.454;27.400;2023-04-19T15:55:32;100170.13;;;14.38;100.00
38303;BME280;24103;42.454;27.400;2023-04-19T15:58:01;100169.44;;;14.25;100.00
38303;BME280;24103;42.454;27.400;2023-04-19T16:00:28;100171.47;;;14.32;100.00
38303;BME280;24103;42.454;27.400;2023-04-19T16:02:54;100180.16;;;14.34;100.00
38303;BME280;24103;42.454;27.400;2023-04-19T16:05:20;100191.53;;;14.14;100.00
38303;BME280;24103;42.454;27.400;2023-04-19T16:07:45;100193.72;;;13.97;100.00
38303;BME280;24103;42.454;27.400;2023-04-19T16:10:12;100196.94;;;13.90;100.00
38303;BME280;24103;42.454;27.400;2023-04-19T16:12:38;100200.09;;;13.95;100.00
38303;BME280;24103;42.454;27.400;2023-04-19T16:15:04;100199.75;;;13.99;100.00
38303;BME280;24103;42.454;27.400;2023-04-19T16:17:30;100198.75;;;14.00;100.00
38303;BME280;24103;42.454;27.400;2023-04-19T16:19:56;100209.66;;;13.97;100.00
38303;BME280;24103;42.454;27.400;2023-04-19T16:22:22;100208.06;;;13.95;100.00
38303;BME280;24103;42.454;27.400;2023-04-19T16:24:49;100212.56;;;13.59;100.00
38303;BME280;24103;42.454;27.400;2023-04-19T16:27:14;100210.63;;;13.61;100.00
38303;BME280;24103;42.454;27.400;2023-04-19T16:29:40;100208.72;;;13.63;100.00
38303;BME280;24103;42.454;27.400;2023-04-19T16:32:06;100210.78;;;13.71;100.00
38303;BME280;24103;42.454;27.400;2023-04-19T16:34:31;100212.75;;;13.80;100.00
38303;BME280;24103;42.454;27.400;2023-04-19T16:36:57;100206.25;;;13.95;100.00
38303;BME280;24103;42.454;27.400;2023-04-19T16:39:23;100205.75;;;13.90;100.00
38303;BME280;24103;42.454;27.400;2023-04-19T16:41:48;100209.38;;;13.78;100.00
38303;BME280;24103;42.454;27.400;2023-04-19T16:44:14;100210.22;;;13.78;100.00
38303;BME280;24103;42.454;27.400;2023-04-19T16:46:40;100219.63;;;13.82;100.00
38303;BME280;24103;42.454;27.400;2023-04-19T16:49:06;100220.72;;;13.33;100.00
38303;BME280;24103;42.454;27.400;2023-04-19T16:51:31;100231.22;;;13.35;100.00
38303;BME280;24103;42.454;27.400;2023-04-19T16:53:57;100235.69;;;13.45;100.00
38303;BME280;24103;42.454;27.400;2023-04-19T16:56:22;100235.19;;;13.40;100.00
38303;BME280;24103;42.454;27.400;2023-04-19T16:58:48;100240.41;;;13.29;100.00
38303;BME280;24103;42.454;27.400;2023-04-19T17:01:14;100239.69;;;13.27;100.00
38303;BME280;24103;42.454;27.400;2023-04-19T17:03:40;100238.19;;;13.36;100.00
38303;BME280;24103;42.454;27.400;2023-04-19T17:06:06;100234.31;;;13.16;100.00
38303;BME280;24103;42.454;27.400;2023-04-19T17:08:31;100241.91;;;13.09;100.00
38303;BME280;24103;42.454;27.400;2023-04-19T17:10:57;100236.25;;;13.14;100.00
38303;BME280;24103;42.454;27.400;2023-04-19T17:13:22;100239.84;;;12.88;100.00
38303;BME280;24103;42.454;27.400;2023-04-19T17:15:48;100239.72;;;12.66;100.00
38303;BME280;24103;42.454;27.400;2023-04-19T17:18:13;100241.66;;;12.51;100.00
38303;BME280;24103;42.454;27.400;2023-04-19T17:20:39;100248.78;;;12.38;100.00
38303;BME280;24103;42.454;27.400;2023-04-19T17:23:05;100257.44;;;12.27;100.00
38303;BME280;24103;42.454;27.400;2023-04-19T17:25:30;100253.53;;;12.20;100.00
38303;BME280;24103;42.454;27.400;2023-04-19T17:27:56;100258.94;;;12.05;100.00
38303;BME280;24103;42.454;27.400;2023-04-19T17:30:21;100263.63;;;12.14;100.00
38303;BME280;24103;42.454;27.400;2023-04-19T17:32:47;100260.63;;;12.19;100.00
38303;BME280;24103;42.454;27.400;2023-04-19T17:35:13;100264.34;;;12.16;100.00
38303;BME280;24103;42.454;27.400;2023-04-19T17:37:38;100263.94;;;12.23;100.00
38303;BME280;24103;42.454;27.400;2023-04-19T17:40:05;100270.47;;;12.04;100.00
38303;BME280;24103;42.454;27.400;2023-04-19T17:42:30;100278.69;;;11.87;100.00
38303;BME280;24103;42.454;27.400;2023-04-19T17:44:56;100283.34;;;11.70;100.00
38303;BME280;24103;42.454;27.400;2023-04-19T17:47:22;100286.56;;;11.61;100.00
38303;BME280;24103;42.454;27.400;2023-04-19T17:49:48;100288.28;;;11.62;100.00
38303;BME280;24103;42.454;27.400;2023-04-19T17:52:14;100302.06;;;11.67;100.00
38303;BME280;24103;42.454;27.400;2023-04-19T17:54:39;100301.66;;;11.46;100.00
38303;BME280;24103;42.454;27.400;2023-04-19T17:57:05;100303.09;;;11.52;100.00
38303;BME280;24103;42.454;27.400;2023-04-19T17:59:31;100300.59;;;11.36;100.00
38303;BME280;24103;42.454;27.400;2023-04-19T18:01:56;100285.28;;;12.71;100.00
38303;BME280;24103;42.454;27.400;2023-04-19T18:04:22;100284.81;;;13.51;100.00
38303;BME280;24103;42.454;27.400;2023-04-19T18:06:48;100272.41;;;13.98;100.00
38303;BME280;24103;42.454;27.400;2023-04-19T18:09:15;100267.88;;;13.65;100.00
38303;BME280;24103;42.454;27.400;2023-04-19T18:11:41;100282.91;;;13.53;100.00
38303;BME280;24103;42.454;27.400;2023-04-19T18:14:07;100287.41;;;13.64;100.00
38303;BME280;24103;42.454;27.400;2023-04-19T18:16:32;100283.44;;;13.70;100.00
38303;BME280;24103;42.454;27.400;2023-04-19T18:18:58;100289.28;;;13.51;100.00
38303;BME280;24103;42.454;27.400;2023-04-19T18:21:23;100294.53;;;13.02;100.00
38303;BME280;24103;42.454;27.400;2023-04-19T18:23:49;100296.78;;;13.20;100.00
38303;BME280;24103;42.454;27.400;2023-04-19T18:26:16;100296.91;;;12.94;100.00
38303;BME280;24103;42.454;27.400;2023-04-19T18:28:42;100300.41;;;12.82;100.00
38303;BME280;24103;42.454;27.400;2023-04-19T18:31:08;100297.16;;;12.65;100.00
38303;BME280;24103;42.454;27.400;2023-04-19T18:33:33;100298.44;;;12.60;100.00
38303;BME280;24103;42.454;27.400;2023-04-19T18:35:59;100299.31;;;12.34;100.00
38303;BME280;24103;42.454;27.400;2023-04-19T18:38:24;100305.25;;;12.38;100.00
38303;BME280;24103;42.454;27.400;2023-04-19T18:40:50;100307.16;;;12.36;100.00
38303;BME280;24103;42.454;27.400;2023-04-19T18:43:16;100312.44;;;12.23;100.00
38303;BME280;24103;42.454;27.400;2023-04-19T18:45:41;100304.31;;;12.39;100.00
38303;BME280;24103;42.454;27.400;2023-04-19T18:48:06;100312.44;;;12.23;100.00
38303;BME280;24103;42.454;27.400;2023-04-19T18:50:33;100313.16;;;12.12;100.00
38303;BME280;24103;42.454;27.400;2023-04-19T18:52:58;100322.06;;;11.98;100.00
38303;BME280;24103;42.454;27.400;2023-04-19T18:55:24;100328.38;;;11.83;100.00
38303;BME280;24103;42.454;27.400;2023-04-19T18:57:50;100332.69;;;11.44;100.00
38303;BME280;24103;42.454;27.400;2023-04-19T19:00:16;100326.66;;;11.42;100.00
38303;BME280;24103;42.454;27.400;2023-04-19T19:02:44;100330.09;;;11.57;100.00
38303;BME280;24103;42.454;27.400;2023-04-19T19:05:10;100332.44;;;11.61;100.00
38303;BME280;24103;42.454;27.400;2023-04-19T19:07:35;100325.63;;;11.57;100.00
38303;BME280;24103;42.454;27.400;2023-04-19T19:10:01;100325.94;;;11.25;100.00
38303;BME280;24103;42.454;27.400;2023-04-19T19:12:26;100322.28;;;11.68;100.00
38303;BME280;24103;42.454;27.400;2023-04-19T19:14:52;100326.34;;;11.87;100.00
38303;BME280;24103;42.454;27.400;2023-04-19T19:17:17;100331.66;;;11.47;100.00
38303;BME280;24103;42.454;27.400;2023-04-19T19:19:43;100331.50;;;11.48;100.00
38303;BME280;24103;42.454;27.400;2023-04-19T19:22:08;100326.34;;;11.47;100.00
38303;BME280;24103;42.454;27.400;2023-04-19T19:24:34;100332.69;;;11.44;100.00
38303;BME280;24103;42.454;27.400;2023-04-19T19:26:59;100330.97;;;11.43;100.00
38303;BME280;24103;42.454;27.400;2023-04-19T19:29:28;100328.28;;;11.30;100.00
38303;BME280;24103;42.454;27.400;2023-04-19T19:31:54;100332.13;;;10.97;100.00
38303;BME280;24103;42.454;27.400;2023-04-19T19:34:21;100332.88;;;10.85;100.00
38303;BME280;24103;42.454;27.400;2023-04-19T19:36:47;100325.41;;;10.92;100.00
38303;BME280;24103;42.454;27.400;2023-04-19T19:39:12;100331.78;;;10.75;100.00
38303;BME280;24103;42.454;27.400;2023-04-19T19:41:41;100333.16;;;10.80;100.00
38303;BME280;24103;42.454;27.400;2023-04-19T19:44:07;100336.78;;;10.65;100.00
38303;BME280;24103;42.454;27.400;2023-04-19T19:46:37;100328.44;;;10.85;100.00
38303;BME280;24103;42.454;27.400;2023-04-19T19:49:03;100322.31;;;10.85;100.00
38303;BME280;24103;42.454;27.400;2023-04-19T19:51:28;100324.03;;;10.57;100.00
38303;BME280;24103;42.454;27.400;2023-04-19T19:53:55;100311.09;;;10.38;100.00
38303;BME280;24103;42.454;27.400;2023-04-19T19:56:20;100313.25;;;10.31;100.00
38303;BME280;24103;42.454;27.400;2023-04-19T19:58:46;100310.94;;;10.41;100.00
38303;BME280;24103;42.454;27.400;2023-04-19T20:01:11;100302.19;;;10.25;100.00
38303;BME280;24103;42.454;27.400;2023-04-19T20:03:37;100307.03;;;10.32;100.00
38303;BME280;24103;42.454;27.400;2023-04-19T20:06:02;100305.16;;;10.35;100.00
38303;BME280;24103;42.454;27.400;2023-04-19T20:08:28;100304.03;;;10.39;100.00
38303;BME280;24103;42.454;27.400;2023-04-19T20:10:54;100308.75;;;10.33;100.00
38303;BME280;24103;42.454;27.400;2023-04-19T20:13:19;100306.44;;;10.27;100.00
38303;BME280;24103;42.454;27.400;2023-04-19T20:15:45;100305.94;;;10.51;100.00
38303;BME280;24103;42.454;27.400;2023-04-19T20:18:11;100303.06;;;10.54;100.00
38303;BME280;24103;42.454;27.400;2023-04-19T20:20:37;100306.59;;;10.55;100.00
38303;BME280;24103;42.454;27.400;2023-04-19T20:23:03;100303.84;;;10.42;100.00
38303;BME280;24103;42.454;27.400;2023-04-19T20:25:28;100301.34;;;10.24;100.00
38303;BME280;24103;42.454;27.400;2023-04-19T20:27:57;100304.72;;;10.12;100.00
38303;BME280;24103;42.454;27.400;2023-04-19T20:30:22;100299.63;;;10.09;100.00
38303;BME280;24103;42.454;27.400;2023-04-19T20:32:48;100301.06;;;9.84;100.00
38303;BME280;24103;42.454;27.400;2023-04-19T20:35:14;100299.03;;;10.34;100.00
38303;BME280;24103;42.454;27.400;2023-04-19T20:37:40;100295.56;;;10.48;100.00
38303;BME280;24103;42.454;27.400;2023-04-19T20:40:07;100289.50;;;10.46;100.00
38303;BME280;24103;42.454;27.400;2023-04-19T20:42:35;100292.91;;;10.48;100.00
38303;BME280;24103;42.454;27.400;2023-04-19T20:45:00;100288.75;;;10.58;100.00
38303;BME280;24103;42.454;27.400;2023-04-19T20:47:25;100300.63;;;10.37;100.00
38303;BME280;24103;42.454;27.400;2023-04-19T20:49:51;100294.34;;;10.09;100.00
38303;BME280;24103;42.454;27.400;2023-04-19T20:52:16;100289.50;;;9.87;100.00
38303;BME280;24103;42.454;27.400;2023-04-19T20:54:42;100297.94;;;9.77;100.00
38303;BME280;24103;42.454;27.400;2023-04-19T20:57:07;100289.94;;;9.79;100.00
38303;BME280;24103;42.454;27.400;2023-04-19T20:59:34;100293.25;;;9.52;100.00
38303;BME280;24103;42.454;27.400;2023-04-19T21:02:01;100291.88;;;9.45;100.00
38303;BME280;24103;42.454;27.400;2023-04-19T21:04:27;100291.41;;;9.38;100.00
38303;BME280;24103;42.454;27.400;2023-04-19T21:06:53;100293.09;;;9.39;100.00
38303;BME280;24103;42.454;27.400;2023-04-19T21:09:18;100285.09;;;9.41;100.00
38303;BME280;24103;42.454;27.400;2023-04-19T21:11:43;100282.47;;;9.71;100.00
38303;BME280;24103;42.454;27.400;2023-04-19T21:14:09;100280.50;;;10.05;100.00
38303;BME280;24103;42.454;27.400;2023-04-19T21:16:34;100292.34;;;9.98;100.00
38303;BME280;24103;42.454;27.400;2023-04-19T21:19:00;100279.47;;;9.77;100.00
38303;BME280;24103;42.454;27.400;2023-04-19T21:21:25;100277.25;;;9.86;100.00
38303;BME280;24103;42.454;27.400;2023-04-19T21:23:52;100282.69;;;10.13;100.00
38303;BME280;24103;42.454;27.400;2023-04-19T21:26:17;100281.72;;;10.28;100.00
38303;BME280;24103;42.454;27.400;2023-04-19T21:28:43;100276.44;;;10.28;100.00
38303;BME280;24103;42.454;27.400;2023-04-19T21:31:08;100272.44;;;10.51;100.00
38303;BME280;24103;42.454;27.400;2023-04-19T21:33:34;100264.41;;;10.67;100.00
38303;BME280;24103;42.454;27.400;2023-04-19T21:35:59;100271.66;;;10.64;100.00
38303;BME280;24103;42.454;27.400;2023-04-19T21:38:25;100280.41;;;10.79;100.00
38303;BME280;24103;42.454;27.400;2023-04-19T21:40:50;100278.69;;;10.92;100.00
38303;BME280;24103;42.454;27.400;2023-04-19T21:43:16;100273.97;;;10.97;100.00
38303;BME280;24103;42.454;27.400;2023-04-19T21:45:42;100266.88;;;10.98;100.00
38303;BME280;24103;42.454;27.400;2023-04-19T21:48:07;100274.72;;;10.99;100.00
38303;BME280;24103;42.454;27.400;2023-04-19T21:50:33;100266.78;;;10.99;100.00
38303;BME280;24103;42.454;27.400;2023-04-19T21:52:58;100265.53;;;11.05;100.00
38303;BME280;24103;42.454;27.400;2023-04-19T21:55:24;100267.41;;;11.17;100.00
38303;BME280;24103;42.454;27.400;2023-04-19T21:57:49;100258.59;;;11.17;100.00
38303;BME280;24103;42.454;27.400;2023-04-19T22:00:15;100258.25;;;11.36;100.00
38303;BME280;24103;42.454;27.400;2023-04-19T22:02:41;100254.44;;;11.27;100.00
38303;BME280;24103;42.454;27.400;2023-04-19T22:05:07;100260.25;;;11.32;100.00
38303;BME280;24103;42.454;27.400;2023-04-19T22:07:33;100260.81;;;11.37;100.00
38303;BME280;24103;42.454;27.400;2023-04-19T22:10:01;100255.94;;;11.44;100.00
38303;BME280;24103;42.454;27.400;2023-04-19T22:12:27;100249.28;;;11.38;100.00
38303;BME280;24103;42.454;27.400;2023-04-19T22:14:53;100259.97;;;11.37;100.00
38303;BME280;24103;42.454;27.400;2023-04-19T22:17:19;100255.94;;;11.44;100.00
38303;BME280;24103;42.454;27.400;2023-04-19T22:19:45;100259.13;;;11.49;100.00